sensor_id;sensor_type;location;lat;lon;timestamp;temperature;humidity
16313;DHT22;8265;52.622;13.296;2024-02-15T00:01:14;8.60;97.30
16313;DHT22;8265;52.622;13.296;2024-02-15T00:06:35;8.60;96.60
16313;DHT22;8265;52.622;13.296;2024-02-15T00:11:57;8.40;98.00
16313;DHT22;8265;52.622;13.296;2024-02-15T00:17:18;8.50;98.10
16313;DHT22;8265;52.622;13.296;2024-02-15T00:22:39;8.60;97.60
16313;DHT22;8265;52.622;13.296;2024-02-15T00:27:59;8.30;98.00
16313;DHT22;8265;52.622;13.296;2024-02-15T00:33:21;8.60;97.20
16313;DHT22;8265;52.622;13.296;2024-02-15T00:38:42;8.50;97.00
16313;DHT22;8265;52.622;13.296;2024-02-15T00:44:03;8.60;97.60
16313;DHT22;8265;52.622;13.296;2024-02-15T00:49:24;8.50;97.50
16313;DHT22;8265;52.622;13.296;2024-02-15T00:54:45;8.50;97.10
16313;DHT22;8265;52.622;13.296;2024-02-15T01:00:06;8.40;98.50
16313;DHT22;8265;52.622;13.296;2024-02-15T01:05:27;8.60;97.30
16313;DHT22;8265;52.622;13.296;2024-02-15T01:10:47;8.40;98.40
16313;DHT22;8265;52.622;13.296;2024-02-15T01:16:09;8.40;98.60
16313;DHT22;8265;52.622;13.296;2024-02-15T01:21:30;8.40;99.20
16313;DHT22;8265;52.622;13.296;2024-02-15T01:26:50;8.50;98.40
16313;DHT22;8265;52.622;13.296;2024-02-15T01:32:11;8.50;98.00
16313;DHT22;8265;52.622;13.296;2024-02-15T01:37:32;8.40;98.90
16313;DHT22;8265;52.622;13.296;2024-02-15T01:42:53;8.60;99.20
16313;DHT22;8265;52.622;13.296;2024-02-15T01:48:15;8.60;99.20
16313;DHT22;8265;52.622;13.296;2024-02-15T01:53:35;8.50;98.40
16313;DHT22;8265;52.622;13.296;2024-02-15T01:58:57;8.60;99.10
16313;DHT22;8265;52.622;13.296;2024-02-15T02:04:17;8.60;98.80
16313;DHT22;8265;52.622;13.296;2024-02-15T02:09:38;8.60;99.00
16313;DHT22;8265;52.622;13.296;2024-02-15T02:14:59;8.80;97.50
16313;DHT22;8265;52.622;13.296;2024-02-15T02:20:20;8.60;97.90
16313;DHT22;8265;52.622;13.296;2024-02-15T02:25:42;8.70;98.40
16313;DHT22;8265;52.622;13.296;2024-02-15T02:31:02;8.80;98.00
16313;DHT22;8265;52.622;13.296;2024-02-15T02:36:23;8.80;97.60
16313;DHT22;8265;52.622;13.296;2024-02-15T02:41:44;8.60;98.40
16313;DHT22;8265;52.622;13.296;2024-02-15T02:47:05;8.70;99.50
16313;DHT22;8265;52.622;13.296;2024-02-15T02:52:26;8.60;98.20
16313;DHT22;8265;52.622;13.296;2024-02-15T02:57:47;8.70;99.60
16313;DHT22;8265;52.622;13.296;2024-02-15T03:03:08;8.80;98.20
16313;DHT22;8265;52.622;13.296;2024-02-15T03:08:29;8.60;99.00
16313;DHT22;8265;52.622;13.296;2024-02-15T03:13:50;8.90;98.60
16313;DHT22;8265;52.622;13.296;2024-02-15T03:19:11;8.80;97.80
16313;DHT22;8265;52.622;13.296;2024-02-15T03:24:32;8.60;98.40
16313;DHT22;8265;52.622;13.296;2024-02-15T03:29:53;8.60;99.70
16313;DHT22;8265;52.622;13.296;2024-02-15T03:35:15;8.60;99.60
16313;DHT22;8265;52.622;13.296;2024-02-15T03:40:35;8.60;99.90
16313;DHT22;8265;52.622;13.296;2024-02-15T03:45:56;8.60;99.90
16313;DHT22;8265;52.622;13.296;2024-02-15T03:51:18;8.60;99.90
16313;DHT22;8265;52.622;13.296;2024-02-15T03:56:50;8.60;99.80
16313;DHT22;8265;52.622;13.296;2024-02-15T04:01:59;8.90;99.50
16313;DHT22;8265;52.622;13.296;2024-02-15T04:07:23;8.70;99.50
16313;DHT22;8265;52.622;13.296;2024-02-15T04:12:41;8.80;99.90
16313;DHT22;8265;52.622;13.296;2024-02-15T04:18:03;8.80;99.80
16313;DHT22;8265;52.622;13.296;2024-02-15T04:23:24;8.90;99.00
16313;DHT22;8265;52.622;13.296;2024-02-15T04:28:45;9.10;98.30
16313;DHT22;8265;52.622;13.296;2024-02-15T04:34:05;9.20;97.00
16313;DHT22;8265;52.622;13.296;2024-02-15T04:39:26;9.00;97.10
16313;DHT22;8265;52.622;13.296;2024-02-15T04:44:47;9.00;99.00
16313;DHT22;8265;52.622;13.296;2024-02-15T04:50:09;9.00;98.90
16313;DHT22;8265;52.622;13.296;2024-02-15T04:55:29;8.90;99.00
16313;DHT22;8265;52.622;13.296;2024-02-15T05:00:50;8.90;99.30
16313;DHT22;8265;52.622;13.296;2024-02-15T05:06:11;8.60;99.80
16313;DHT22;8265;52.622;13.296;2024-02-15T05:11:33;8.70;99.90
16313;DHT22;8265;52.622;13.296;2024-02-15T05:16:53;8.90;99.90
16313;DHT22;8265;52.622;13.296;2024-02-15T05:22:14;8.80;99.00
16313;DHT22;8265;52.622;13.296;2024-02-15T05:27:35;9.00;99.00
16313;DHT22;8265;52.622;13.296;2024-02-15T05:32:56;9.00;98.70
16313;DHT22;8265;52.622;13.296;2024-02-15T05:38:17;9.00;98.50
16313;DHT22;8265;52.622;13.296;2024-02-15T05:43:38;9.40;97.40
16313;DHT22;8265;52.622;13.296;2024-02-15T05:48:59;9.20;97.50
16313;DHT22;8265;52.622;13.296;2024-02-15T05:54:20;9.20;97.60
16313;DHT22;8265;52.622;13.296;2024-02-15T05:59:41;9.00;98.20
16313;DHT22;8265;52.622;13.296;2024-02-15T06:05:02;9.20;99.40
16313;DHT22;8265;52.622;13.296;2024-02-15T06:10:23;9.00;98.50
16313;DHT22;8265;52.622;13.296;2024-02-15T06:15:44;9.10;99.30
16313;DHT22;8265;52.622;13.296;2024-02-15T06:21:05;9.40;97.50
16313;DHT22;8265;52.622;13.296;2024-02-15T06:26:26;9.40;97.50
16313;DHT22;8265;52.622;13.296;2024-02-15T06:31:47;9.30;97.10
16313;DHT22;8265;52.622;13.296;2024-02-15T06:37:08;9.40;98.00
16313;DHT22;8265;52.622;13.296;2024-02-15T06:42:29;9.70;95.90
16313;DHT22;8265;52.622;13.296;2024-02-15T06:47:50;9.70;95.50
16313;DHT22;8265;52.622;13.296;2024-02-15T06:53:11;9.60;95.70
16313;DHT22;8265;52.622;13.296;2024-02-15T06:58:32;9.70;95.90
16313;DHT22;8265;52.622;13.296;2024-02-15T07:03:53;9.70;95.90
16313;DHT22;8265;52.622;13.296;2024-02-15T07:09:14;9.80;95.90
16313;DHT22;8265;52.622;13.296;2024-02-15T07:14:35;9.50;96.90
16313;DHT22;8265;52.622;13.296;2024-02-15T07:19:56;9.60;97.50
16313;DHT22;8265;52.622;13.296;2024-02-15T07:25:17;9.50;97.40
16313;DHT22;8265;52.622;13.296;2024-02-15T07:30:38;9.50;97.50
16313;DHT22;8265;52.622;13.296;2024-02-15T07:35:59;9.60;97.40
16313;DHT22;8265;52.622;13.296;2024-02-15T07:41:21;9.70;97.10
16313;DHT22;8265;52.622;13.296;2024-02-15T07:46:41;9.70;97.00
16313;DHT22;8265;52.622;13.296;2024-02-15T07:52:02;9.70;97.20
16313;DHT22;8265;52.622;13.296;2024-02-15T07:57:23;9.70;97.60
16313;DHT22;8265;52.622;13.296;2024-02-15T08:02:44;10.00;96.40
16313;DHT22;8265;52.622;13.296;2024-02-15T08:08:05;9.70;96.70
16313;DHT22;8265;52.622;13.296;2024-02-15T08:13:26;10.10;96.40
16313;DHT22;8265;52.622;13.296;2024-02-15T08:18:47;10.10;95.70
16313;DHT22;8265;52.622;13.296;2024-02-15T08:24:08;9.80;97.20
16313;DHT22;8265;52.622;13.296;2024-02-15T08:29:29;10.00;97.20
16313;DHT22;8265;52.622;13.296;2024-02-15T08:34:50;10.00;96.90
16313;DHT22;8265;52.622;13.296;2024-02-15T08:40:11;9.90;97.60
16313;DHT22;8265;52.622;13.296;2024-02-15T08:45:32;9.90;97.30
16313;DHT22;8265;52.622;13.296;2024-02-15T08:50:53;10.00;96.90
16313;DHT22;8265;52.622;13.296;2024-02-15T08:56:14;10.00;97.90
16313;DHT22;8265;52.622;13.296;2024-02-15T09:01:35;10.10;97.80
16313;DHT22;8265;52.622;13.296;2024-02-15T09:06:56;10.40;96.90
16313;DHT22;8265;52.622;13.296;2024-02-15T09:12:17;10.40;95.80
16313;DHT22;8265;52.622;13.296;2024-02-15T09:17:38;10.60;95.70
16313;DHT22;8265;52.622;13.296;2024-02-15T09:22:59;10.80;95.20
16313;DHT22;8265;52.622;13.296;2024-02-15T09:28:20;10.60;95.10
16313;DHT22;8265;52.622;13.296;2024-02-15T09:33:41;10.70;95.10
16313;DHT22;8265;52.622;13.296;2024-02-15T09:39:02;10.80;94.70
16313;DHT22;8265;52.622;13.296;2024-02-15T09:44:23;10.70;94.40
16313;DHT22;8265;52.622;13.296;2024-02-15T09:49:44;10.80;93.90
16313;DHT22;8265;52.622;13.296;2024-02-15T09:55:06;11.00;94.10
16313;DHT22;8265;52.622;13.296;2024-02-15T10:00:26;11.00;93.60
16313;DHT22;8265;52.622;13.296;2024-02-15T10:05:48;11.10;94.00
16313;DHT22;8265;52.622;13.296;2024-02-15T10:11:08;11.20;92.60
16313;DHT22;8265;52.622;13.296;2024-02-15T10:16:29;11.10;92.70
16313;DHT22;8265;52.622;13.296;2024-02-15T10:21:53;11.50;92.30
16313;DHT22;8265;52.622;13.296;2024-02-15T10:27:11;11.40;91.90
16313;DHT22;8265;52.622;13.296;2024-02-15T10:32:35;11.40;92.60
16313;DHT22;8265;52.622;13.296;2024-02-15T10:38:03;11.10;93.60
16313;DHT22;8265;52.622;13.296;2024-02-15T10:43:14;11.30;92.50
16313;DHT22;8265;52.622;13.296;2024-02-15T10:48:36;11.50;92.40
16313;DHT22;8265;52.622;13.296;2024-02-15T10:54:01;11.80;91.40
16313;DHT22;8265;52.622;13.296;2024-02-15T10:59:18;12.00;91.50
16313;DHT22;8265;52.622;13.296;2024-02-15T11:04:38;12.30;90.90
16313;DHT22;8265;52.622;13.296;2024-02-15T11:09:59;12.90;88.60
16313;DHT22;8265;52.622;13.296;2024-02-15T11:26:02;12.50;89.00
16313;DHT22;8265;52.622;13.296;2024-02-15T11:31:54;12.30;89.80
16313;DHT22;8265;52.622;13.296;2024-02-15T11:36:44;12.50;89.00
16313;DHT22;8265;52.622;13.296;2024-02-15T11:42:30;12.50;88.50
16313;DHT22;8265;52.622;13.296;2024-02-15T11:47:26;12.30;89.10
16313;DHT22;8265;52.622;13.296;2024-02-15T11:52:47;12.10;90.20
16313;DHT22;8265;52.622;13.296;2024-02-15T11:58:08;12.10;90.50
16313;DHT22;8265;52.622;13.296;2024-02-15T12:03:29;11.90;91.30
16313;DHT22;8265;52.622;13.296;2024-02-15T12:08:53;12.00;92.20
16313;DHT22;8265;52.622;13.296;2024-02-15T12:14:14;12.10;91.20
16313;DHT22;8265;52.622;13.296;2024-02-15T12:19:32;12.00;92.30
16313;DHT22;8265;52.622;13.296;2024-02-15T12:24:54;12.00;91.60
16313;DHT22;8265;52.622;13.296;2024-02-15T12:30:15;11.90;91.80
16313;DHT22;8265;52.622;13.296;2024-02-15T12:35:35;11.90;92.50
16313;DHT22;8265;52.622;13.296;2024-02-15T12:40:56;12.10;91.40
16313;DHT22;8265;52.622;13.296;2024-02-15T12:46:18;12.30;90.30
16313;DHT22;8265;52.622;13.296;2024-02-15T12:51:39;12.20;90.20
16313;DHT22;8265;52.622;13.296;2024-02-15T12:57:07;12.50;88.80
16313;DHT22;8265;52.622;13.296;2024-02-15T13:02:20;12.50;88.40
16313;DHT22;8265;52.622;13.296;2024-02-15T13:07:41;12.70;87.30
16313;DHT22;8265;52.622;13.296;2024-02-15T13:13:02;12.80;88.10
16313;DHT22;8265;52.622;13.296;2024-02-15T13:18:23;12.80;88.70
16313;DHT22;8265;52.622;13.296;2024-02-15T13:23:44;12.70;87.80
16313;DHT22;8265;52.622;13.296;2024-02-15T13:29:05;12.90;87.50
16313;DHT22;8265;52.622;13.296;2024-02-15T13:34:26;12.80;87.80
16313;DHT22;8265;52.622;13.296;2024-02-15T13:39:47;13.00;86.40
16313;DHT22;8265;52.622;13.296;2024-02-15T13:45:08;13.00;85.80
16313;DHT22;8265;52.622;13.296;2024-02-15T13:50:29;12.80;87.20
16313;DHT22;8265;52.622;13.296;2024-02-15T13:55:50;12.80;87.10
16313;DHT22;8265;52.622;13.296;2024-02-15T14:01:11;12.90;85.90
16313;DHT22;8265;52.622;13.296;2024-02-15T14:06:32;13.00;87.30
16313;DHT22;8265;52.622;13.296;2024-02-15T14:11:53;12.90;86.90
16313;DHT22;8265;52.622;13.296;2024-02-15T14:17:14;12.80;86.40
16313;DHT22;8265;52.622;13.296;2024-02-15T14:22:35;12.80;87.10
16313;DHT22;8265;52.622;13.296;2024-02-15T14:27:56;12.80;86.10
16313;DHT22;8265;52.622;13.296;2024-02-15T14:33:17;12.70;86.70
16313;DHT22;8265;52.622;13.296;2024-02-15T14:38:38;12.70;86.00
16313;DHT22;8265;52.622;13.296;2024-02-15T14:43:59;12.60;87.30
16313;DHT22;8265;52.622;13.296;2024-02-15T14:49:20;12.70;87.10
16313;DHT22;8265;52.622;13.296;2024-02-15T14:54:41;12.70;87.20
16313;DHT22;8265;52.622;13.296;2024-02-15T15:00:02;12.80;87.00
16313;DHT22;8265;52.622;13.296;2024-02-15T15:05:23;12.90;87.70
16313;DHT22;8265;52.622;13.296;2024-02-15T15:10:47;12.80;87.50
16313;DHT22;8265;52.622;13.296;2024-02-15T15:16:05;12.50;89.10
16313;DHT22;8265;52.622;13.296;2024-02-15T15:21:26;12.30;88.00
16313;DHT22;8265;52.622;13.296;2024-02-15T15:26:47;12.50;87.90
16313;DHT22;8265;52.622;13.296;2024-02-15T15:32:08;12.40;88.30
16313;DHT22;8265;52.622;13.296;2024-02-15T15:37:29;12.30;88.50
16313;DHT22;8265;52.622;13.296;2024-02-15T15:42:50;12.20;89.00
16313;DHT22;8265;52.622;13.296;2024-02-15T15:48:11;12.20;88.50
16313;DHT22;8265;52.622;13.296;2024-02-15T15:53:32;12.20;88.50
16313;DHT22;8265;52.622;13.296;2024-02-15T15:58:53;12.10;89.20
16313;DHT22;8265;52.622;13.296;2024-02-15T16:04:14;12.10;89.50
16313;DHT22;8265;52.622;13.296;2024-02-15T16:09:35;12.10;89.50
16313;DHT22;8265;52.622;13.296;2024-02-15T16:14:56;11.90;90.40
16313;DHT22;8265;52.622;13.296;2024-02-15T16:20:17;11.90;91.20
16313;DHT22;8265;52.622;13.296;2024-02-15T16:25:38;12.00;91.20
16313;DHT22;8265;52.622;13.296;2024-02-15T16:30:59;11.90;91.00
16313;DHT22;8265;52.622;13.296;2024-02-15T16:36:20;11.70;92.20
16313;DHT22;8265;52.622;13.296;2024-02-15T16:41:41;11.90;92.00
16313;DHT22;8265;52.622;13.296;2024-02-15T16:47:02;11.70;92.50
16313;DHT22;8265;52.622;13.296;2024-02-15T16:52:23;11.70;92.10
16313;DHT22;8265;52.622;13.296;2024-02-15T16:57:44;11.60;92.60
16313;DHT22;8265;52.622;13.296;2024-02-15T17:03:05;11.50;93.40
16313;DHT22;8265;52.622;13.296;2024-02-15T17:08:26;11.70;93.20
16313;DHT22;8265;52.622;13.296;2024-02-15T17:13:47;11.70;92.60
16313;DHT22;8265;52.622;13.296;2024-02-15T17:19:08;11.60;93.00
16313;DHT22;8265;52.622;13.296;2024-02-15T17:24:29;11.70;93.20
16313;DHT22;8265;52.622;13.296;2024-02-15T17:29:50;11.60;92.50
16313;DHT22;8265;52.622;13.296;2024-02-15T17:35:11;11.60;93.40
16313;DHT22;8265;52.622;13.296;2024-02-15T17:40:32;11.70;92.60
16313;DHT22;8265;52.622;13.296;2024-02-15T17:45:53;11.90;91.80
16313;DHT22;8265;52.622;13.296;2024-02-15T17:51:14;11.80;91.50
16313;DHT22;8265;52.622;13.296;2024-02-15T17:56:35;11.70;92.50
16313;DHT22;8265;52.622;13.296;2024-02-15T18:01:55;11.70;92.20
16313;DHT22;8265;52.622;13.296;2024-02-15T18:07:17;11.70;92.10
16313;DHT22;8265;52.622;13.296;2024-02-15T18:12:38;11.60;92.20
16313;DHT22;8265;52.622;13.296;2024-02-15T18:17:58;11.60;93.00
16313;DHT22;8265;52.622;13.296;2024-02-15T18:23:19;11.50;92.80
16313;DHT22;8265;52.622;13.296;2024-02-15T18:28:40;11.60;92.60
16313;DHT22;8265;52.622;13.296;2024-02-15T18:34:01;11.50;92.50
16313;DHT22;8265;52.622;13.296;2024-02-15T18:39:23;11.90;92.50
16313;DHT22;8265;52.622;13.296;2024-02-15T18:44:43;11.80;91.90
16313;DHT22;8265;52.622;13.296;2024-02-15T18:50:04;11.90;91.20
16313;DHT22;8265;52.622;13.296;2024-02-15T18:55:25;11.90;91.50
16313;DHT22;8265;52.622;13.296;2024-02-15T19:00:46;11.90;91.70
16313;DHT22;8265;52.622;13.296;2024-02-15T19:06:07;11.90;91.20
16313;DHT22;8265;52.622;13.296;2024-02-15T19:11:28;11.70;91.50
16313;DHT22;8265;52.622;13.296;2024-02-15T19:16:49;11.70;92.30
16313;DHT22;8265;52.622;13.296;2024-02-15T19:22:10;11.80;91.80
16313;DHT22;8265;52.622;13.296;2024-02-15T19:27:31;11.80;91.00
16313;DHT22;8265;52.622;13.296;2024-02-15T19:32:52;11.70;92.00
16313;DHT22;8265;52.622;13.296;2024-02-15T19:38:13;11.70;91.80
16313;DHT22;8265;52.622;13.296;2024-02-15T19:43:34;11.60;91.90
16313;DHT22;8265;52.622;13.296;2024-02-15T19:48:55;11.50;92.30
16313;DHT22;8265;52.622;13.296;2024-02-15T19:54:16;11.50;92.70
16313;DHT22;8265;52.622;13.296;2024-02-15T19:59:37;11.40;92.30
16313;DHT22;8265;52.622;13.296;2024-02-15T20:04:58;11.50;92.30
16313;DHT22;8265;52.622;13.296;2024-02-15T20:10:19;11.50;92.20
16313;DHT22;8265;52.622;13.296;2024-02-15T20:15:40;11.50;91.80
16313;DHT22;8265;52.622;13.296;2024-02-15T20:21:01;11.40;92.30
16313;DHT22;8265;52.622;13.296;2024-02-15T20:26:22;11.40;91.70
16313;DHT22;8265;52.622;13.296;2024-02-15T20:31:43;11.50;91.60
16313;DHT22;8265;52.622;13.296;2024-02-15T20:37:04;11.40;92.50
16313;DHT22;8265;52.622;13.296;2024-02-15T20:42:25;11.50;91.20
16313;DHT22;8265;52.622;13.296;2024-02-15T20:47:46;11.50;91.50
16313;DHT22;8265;52.622;13.296;2024-02-15T20:53:07;11.50;91.10
16313;DHT22;8265;52.622;13.296;2024-02-15T20:58:28;11.30;91.90
16313;DHT22;8265;52.622;13.296;2024-02-15T21:03:49;11.30;91.50
16313;DHT22;8265;52.622;13.296;2024-02-15T21:09:10;11.40;92.00
16313;DHT22;8265;52.622;13.296;2024-02-15T21:14:32;11.30;91.30
16313;DHT22;8265;52.622;13.296;2024-02-15T21:19:52;11.40;90.70
16313;DHT22;8265;52.622;13.296;2024-02-15T21:25:13;11.40;90.80
16313;DHT22;8265;52.622;13.296;2024-02-15T21:30:34;11.40;91.00
16313;DHT22;8265;52.622;13.296;2024-02-15T21:35:55;11.40;90.50
16313;DHT22;8265;52.622;13.296;2024-02-15T21:41:16;11.50;90.90
16313;DHT22;8265;52.622;13.296;2024-02-15T21:46:37;11.50;90.10
16313;DHT22;8265;52.622;13.296;2024-02-15T21:51:58;11.50;90.40
16313;DHT22;8265;52.622;13.296;2024-02-15T21:57:19;11.50;90.20
16313;DHT22;8265;52.622;13.296;2024-02-15T22:02:40;11.60;90.40
16313;DHT22;8265;52.622;13.296;2024-02-15T22:08:01;11.50;89.60
16313;DHT22;8265;52.622;13.296;2024-02-15T22:13:22;11.40;90.10
16313;DHT22;8265;52.622;13.296;2024-02-15T22:18:43;11.30;90.70
16313;DHT22;8265;52.622;13.296;2024-02-15T22:24:04;11.30;90.30
16313;DHT22;8265;52.622;13.296;2024-02-15T22:29:25;11.30;91.30
16313;DHT22;8265;52.622;13.296;2024-02-15T22:34:46;11.20;90.20
16313;DHT22;8265;52.622;13.296;2024-02-15T22:40:07;11.40;91.20
16313;DHT22;8265;52.622;13.296;2024-02-15T22:45:28;11.10;90.20
16313;DHT22;8265;52.622;13.296;2024-02-15T22:50:49;10.70;91.50
16313;DHT22;8265;52.622;13.296;2024-02-15T22:56:11;10.60;92.00
16313;DHT22;8265;52.622;13.296;2024-02-15T23:01:31;10.50;92.60
16313;DHT22;8265;52.622;13.296;2024-02-15T23:06:52;10.30;92.70
16313;DHT22;8265;52.622;13.296;2024-02-15T23:12:13;10.30;93.80
16313;DHT22;8265;52.622;13.296;2024-02-15T23:17:34;10.20;93.20
16313;DHT22;8265;52.622;13.296;2024-02-15T23:22:55;10.20;93.30
16313;DHT22;8265;52.622;13.296;2024-02-15T23:28:16;10.00;93.60
16313;DHT22;8265;52.622;13.296;2024-02-15T23:33:37;10.00;93.90
16313;DHT22;8265;52.622;13.296;2024-02-15T23:38:58;10.00;93.90
16313;DHT22;8265;52.622;13.296;2024-02-15T23:44:27;10.00;93.40
16313;DHT22;8265;52.622;13.296;2024-02-15T23:49:40;9.80;93.50
16313;DHT22;8265;52.622;13.296;2024-02-15T23:55:01;9.70;94.00
